Time;durP1;ratioP1;P1;durP2;ratioP2;P2;SDS_P1;SDS_P2;PMS_P1;PMS_P2;Temp;Humidity;BMP_temperature;BMP_pressure;BME280_temperature;BME280_humidity;BME280_pressure;Samples;Min_cycle;Max_cycle;Signal;HPM_P1;HPM_P2
2023/07/27 00:00:05;;;;;;;;;1.00;0.00;;;;;21.43;58.89;100364.00;5123924;27;45250;-83
2023/07/27 00:02:31;;;;;;;;;3.00;2.00;;;;;21.49;58.74;100374.19;5135739;27;45349;-80
2023/07/27 00:04:56;;;;;;;;;1.67;1.67;;;;;21.35;58.97;100345.00;5120767;27;45319;-82
2023/07/27 00:07:22;;;;;;;;;3.00;1.33;;;;;21.46;59.99;100384.47;5131885;27;61627;-81
2023/07/27 00:09:47;;;;;;;;;2.75;1.00;;;;;21.35;59.94;100350.41;5140979;27;45624;-85
2023/07/27 00:12:12;;;;;;;;;0.00;0.00;;;;;21.43;59.64;100376.66;5138368;27;45535;-81
2023/07/27 00:14:39;;;;;;;;;2.00;2.00;;;;;21.39;59.77;100362.63;5139803;27;45366;-85
2023/07/27 00:17:05;;;;;;;;;1.00;1.00;;;;;21.40;60.00;100368.88;5141516;27;45315;-79
2023/07/27 00:19:30;;;;;;;;;1.67;1.67;;;;;21.39;60.39;100372.59;5143161;27;45168;-80
2023/07/27 00:21:55;;;;;;;;;2.00;2.00;;;;;21.25;60.40;100338.88;5138702;27;46024;-80
2023/07/27 00:24:21;;;;;;;;;3.50;1.25;;;;;21.43;60.79;100363.13;5121397;27;45261;-79
2023/07/27 00:26:46;;;;;;;;;3.00;2.25;;;;;21.34;60.73;100348.72;5121954;27;45200;-81
2023/07/27 00:29:11;;;;;;;;;2.00;2.00;;;;;21.16;60.35;100316.31;5122362;27;45140;-83
2023/07/27 00:31:37;;;;;;;;;2.33;2.33;;;;;21.25;61.02;100322.66;5128248;27;54243;-82
2023/07/27 00:34:02;;;;;;;;;1.33;1.33;;;;;21.39;60.96;100345.53;5123884;27;45318;-82
2023/07/27 00:36:27;;;;;;;;;3.00;3.00;;;;;21.39;61.22;100345.53;5130058;27;49698;-83
2023/07/27 00:38:53;;;;;;;;;1.00;1.00;;;;;21.21;61.75;100316.66;5137586;27;45624;-83
2023/07/27 00:41:18;;;;;;;;;1.00;1.00;;;;;21.35;61.48;100336.03;5126350;27;45470;-82
2023/07/27 00:43:44;;;;;;;;;2.00;2.00;;;;;21.35;61.73;100341.44;5142468;27;45339;-83
2023/07/27 00:46:10;;;;;;;;;1.00;1.00;;;;;21.35;61.93;100341.44;5127064;27;45299;-86
2023/07/27 00:48:36;;;;;;;;;3.67;2.00;;;;;21.31;62.26;100343.63;5147166;27;45525;-83
2023/07/27 00:51:01;;;;;;;;;1.33;1.33;;;;;21.34;62.10;100340.59;5145601;27;45454;-84
2023/07/27 00:53:27;;;;;;;;;2.67;1.00;;;;;21.24;62.48;100314.69;5143661;27;45355;-83
2023/07/27 00:55:52;;;;;;;;;1.00;1.00;;;;;21.37;62.67;100336.75;5141668;27;45337;-83
2023/07/27 00:58:18;;;;;;;;;1.33;1.33;;;;;21.36;62.91;100335.06;5142732;27;45445;-82
2023/07/27 01:00:43;;;;;;;;;1.00;1.00;;;;;21.10;62.45;100284.53;5136486;27;45485;-83
2023/07/27 01:03:10;;;;;;;;;0.75;0.75;;;;;21.39;62.69;100330.16;5101151;27;45459;-81
2023/07/27 01:05:37;;;;;;;;;0.67;0.67;;;;;21.32;62.92;100318.28;5122557;27;45507;-80
2023/07/27 01:08:02;;;;;;;;;2.33;1.00;;;;;21.29;62.98;100317.75;5120597;27;45175;-80
2023/07/27 01:10:57;;;;;;;;;1.33;1.00;;;;;21.37;63.01;100329.47;5104362;27;47197;-81
2023/07/27 01:13:33;;;;;;;;;3.33;0.67;;;;;21.38;62.74;100319.50;5122115;27;45941;-81
2023/07/27 01:16:08;;;;;;;;;0.67;0.67;;;;;21.24;63.07;100298.44;5135360;27;45340;-82
2023/07/27 01:18:59;;;;;;;;;0.50;0.50;;;;;21.11;63.00;100271.84;5123148;27;45362;-84
2023/07/27 01:21:49;;;;;;;;;1.00;1.00;;;;;21.24;63.12;100298.44;5133931;27;45381;-81
2023/07/27 01:24:26;;;;;;;;;2.00;2.00;;;;;21.24;63.19;100299.28;5143607;27;45533;-83
2023/07/27 01:27:30;;;;;;;;;1.00;1.00;;;;;21.06;63.12;100272.31;5141156;27;45419;-83
2023/07/27 01:30:25;;;;;;;;;1.33;1.33;;;;;21.28;63.34;100313.38;5140679;27;45493;-83
2023/07/27 01:32:57;;;;;;;;;3.00;1.75;;;;;21.18;63.12;100298.06;5108017;27;48170;-81
2023/07/27 01:35:31;;;;;;;;;1.67;1.67;;;;;21.24;63.53;100310.09;5141139;27;45176;-79
2023/07/27 01:37:59;;;;;;;;;2.67;1.67;;;;;21.19;63.37;100302.47;5122289;27;45352;-85
2023/07/27 01:40:26;;;;;;;;;1.00;1.00;;;;;21.18;63.26;100302.63;5140924;27;45218;-80
2023/07/27 01:42:52;;;;;;;;;0.67;0.67;;;;;21.15;64.06;100294.84;5140278;27;46657;-83
2023/07/27 01:45:18;;;;;;;;;2.00;2.00;;;;;21.16;63.40;100300.09;5140509;27;45256;-81
2023/07/27 01:47:45;;;;;;;;;1.00;1.00;;;;;21.11;63.71;100297.03;5139123;27;45370;-80
2023/07/27 01:50:14;;;;;;;;;2.00;2.00;;;;;21.10;63.65;100291.78;5140314;27;45421;-81
2023/07/27 01:52:42;;;;;;;;;1.50;1.50;;;;;21.06;63.99;100285.84;5139628;27;45339;-79
2023/07/27 01:55:09;;;;;;;;;1.25;1.25;;;;;20.89;64.05;100268.69;5139713;27;45394;-78
2023/07/27 01:57:35;;;;;;;;;3.00;3.00;;;;;21.03;63.70;100285.31;5140302;27;45433;-80
2023/07/27 02:00:02;;;;;;;;;1.00;1.00;;;;;20.99;63.98;100278.53;5139900;27;45201;-81
2023/07/27 02:02:29;;;;;;;;;1.00;1.00;;;;;20.98;63.86;100274.16;5139463;27;46090;-80
2023/07/27 02:04:57;;;;;;;;;1.00;1.00;;;;;20.95;64.03;100267.19;5139285;27;45355;-84
2023/07/27 02:07:23;;;;;;;;;4.00;2.00;;;;;20.78;64.16;100232.97;5139930;27;45416;-81
2023/07/27 02:09:48;;;;;;;;;0.00;0.00;;;;;20.60;63.83;100211.44;5131503;27;45848;-80
2023/07/27 02:12:23;;;;;;;;;0.25;0.25;;;;;20.96;64.12;100281.53;5119244;27;45333;-82
2023/07/27 02:15:22;;;;;;;;;2.00;2.00;;;;;20.95;64.09;100283.41;5102110;27;45761;-80
2023/07/27 02:17:53;;;;;;;;;1.25;1.00;;;;;20.95;63.98;100274.44;5082700;27;45417;-81
2023/07/27 02:20:21;;;;;;;;;1.00;1.00;;;;;20.95;63.75;100280.69;5084408;27;45407;-82
2023/07/27 02:22:47;;;;;;;;;0.67;0.67;;;;;20.69;64.08;100221.25;5119748;27;45438;-79
2023/07/27 02:25:13;;;;;;;;;1.00;1.00;;;;;20.63;63.74;100218.34;5119228;27;45311;-81
2023/07/27 02:27:40;;;;;;;;;0.33;0.33;;;;;20.88;64.55;100260.72;5119817;27;45297;-83
2023/07/27 02:30:06;;;;;;;;;1.00;1.00;;;;;20.71;64.21;100229.22;5121726;27;45403;-82
2023/07/27 02:32:32;;;;;;;;;1.00;1.00;;;;;20.75;64.31;100246.81;5121224;27;46118;-81
2023/07/27 02:34:57;;;;;;;;;2.00;1.00;;;;;20.82;65.00;100250.53;5120752;27;45431;-82
2023/07/27 02:37:23;;;;;;;;;2.00;0.67;;;;;20.70;65.00;100239.16;5118985;27;45453;-81
2023/07/27 02:39:48;;;;;;;;;0.67;0.67;;;;;20.81;65.46;100255.09;5119475;27;45391;-80
2023/07/27 02:42:14;;;;;;;;;1.00;1.00;;;;;20.80;65.72;100256.13;5100320;27;46593;-82
2023/07/27 02:44:39;;;;;;;;;0.00;0.00;;;;;20.78;65.73;100251.88;5120601;27;45301;-80
2023/07/27 02:47:05;;;;;;;;;1.75;1.75;;;;;20.78;66.02;100257.28;5120505;27;45391;-84
2023/07/27 02:49:30;;;;;;;;;0.33;0.33;;;;;20.26;66.82;100168.97;5122062;27;45294;-81
2023/07/27 02:51:56;;;;;;;;;0.00;0.00;;;;;20.70;66.49;100241.00;5123828;27;46259;-84
2023/07/27 02:54:21;;;;;;;;;0.33;0.33;;;;;20.43;67.22;100196.94;5119302;27;45249;-86
2023/07/27 02:56:48;;;;;;;;;1.00;1.00;;;;;20.57;67.04;100228.81;5138225;27;45384;-82
2023/07/27 02:59:13;;;;;;;;;0.00;0.00;;;;;20.47;67.02;100225.34;5121254;27;45575;-84
2023/07/27 03:01:39;;;;;;;;;1.00;1.00;;;;;20.54;67.64;100247.16;5140404;27;45645;-84
2023/07/27 03:04:04;;;;;;;;;0.67;0.67;;;;;20.47;67.59;100240.72;5141988;27;45233;-85
2023/07/27 03:06:29;;;;;;;;;1.00;1.00;;;;;20.35;67.23;100232.00;5126188;27;45235;-84
2023/07/27 03:08:55;;;;;;;;;1.67;1.00;;;;;20.50;67.13;100257.44;5142680;27;45171;-88
2023/07/27 03:11:20;;;;;;;;;2.00;0.33;;;;;20.42;67.84;100256.53;5122991;27;46175;-82
2023/07/27 03:13:49;;;;;;;;;1.00;1.00;;;;;20.44;67.56;100262.63;5122588;27;45403;-81
2023/07/27 03:16:15;;;;;;;;;0.33;0.33;;;;;20.30;67.09;100239.69;5123707;27;45386;-83
2023/07/27 03:18:40;;;;;;;;;2.00;1.00;;;;;20.33;66.61;100245.66;5116320;27;45252;-81
2023/07/27 03:21:06;;;;;;;;;1.00;1.00;;;;;20.39;67.09;100254.97;5126299;27;45509;-85
2023/07/27 03:23:33;;;;;;;;;1.00;1.00;;;;;20.39;67.12;100252.25;5136547;27;45574;-84
2023/07/27 03:25:58;;;;;;;;;0.00;0.00;;;;;20.25;67.11;100242.03;5118970;27;45547;-82
2023/07/27 03:28:23;;;;;;;;;3.67;0.67;;;;;20.35;67.84;100259.00;5125862;27;45248;-82
2023/07/27 03:30:49;;;;;;;;;1.00;0.00;;;;;20.39;67.09;100263.06;5131186;27;46273;-86
2023/07/27 03:33:14;;;;;;;;;0.67;0.67;;;;;20.39;67.15;100263.06;5135360;27;45325;-81
2023/07/27 03:35:39;;;;;;;;;1.00;1.00;;;;;20.42;67.13;100270.88;5127103;27;45296;-81
2023/07/27 03:38:05;;;;;;;;;1.00;1.00;;;;;20.35;67.25;100250.03;5129753;27;45245;-79
2023/07/27 03:40:30;;;;;;;;;1.00;1.00;;;;;20.29;66.85;100238.00;5118301;27;45465;-81
2023/07/27 03:42:56;;;;;;;;;0.00;0.00;;;;;20.29;67.05;100248.81;5132440;27;45460;-81
2023/07/27 03:45:21;;;;;;;;;0.00;0.00;;;;;20.27;66.91;100240.03;5120092;27;45335;-82
2023/07/27 03:47:46;;;;;;;;;0.00;0.00;;;;;20.47;67.23;100265.88;5137084;27;45523;-81
2023/07/27 03:50:13;;;;;;;;;1.00;1.00;;;;;20.39;66.79;100248.72;5140807;27;45407;-82
2023/07/27 03:52:39;;;;;;;;;0.00;0.00;;;;;20.40;66.86;100253.97;5141879;27;45475;-81
2023/07/27 03:55:04;;;;;;;;;0.00;0.00;;;;;20.50;67.52;100260.16;5126290;27;45410;-81
2023/07/27 03:57:30;;;;;;;;;1.00;0.00;;;;;20.52;66.81;100265.38;5121363;27;45342;-80
2023/07/27 03:59:57;;;;;;;;;0.67;0.67;;;;;20.30;66.94;100224.34;5120437;27;45219;-82
2023/07/27 04:02:26;;;;;;;;;3.00;0.00;;;;;20.52;66.88;100254.59;5120985;27;45404;-80
2023/07/27 04:04:52;;;;;;;;;0.67;0.67;;;;;20.46;66.79;100256.06;5121331;27;45429;-80
2023/07/27 04:07:20;;;;;;;;;1.00;1.00;;;;;20.49;67.19;100261.16;5120585;27;45526;-81
2023/07/27 04:09:46;;;;;;;;;2.00;1.00;;;;;20.46;67.04;100266.88;5121056;27;45260;-80
2023/07/27 04:12:12;;;;;;;;;0.67;0.67;;;;;20.34;66.85;100246.50;5121147;27;45348;-81
2023/07/27 04:14:38;;;;;;;;;0.67;0.67;;;;;20.53;66.70;100267.09;5120558;27;45488;-81
2023/07/27 04:17:04;;;;;;;;;0.00;0.00;;;;;20.51;66.66;100261.00;5102705;27;45491;-80
2023/07/27 04:19:30;;;;;;;;;1.67;0.67;;;;;20.56;67.07;100266.75;5120672;27;46328;-82
2023/07/27 04:21:55;;;;;;;;;0.00;0.00;;;;;20.49;66.79;100255.75;5122672;27;45533;-80
2023/07/27 04:24:21;;;;;;;;;0.33;0.33;;;;;20.47;66.89;100240.72;5142172;27;45767;-80
2023/07/27 04:26:46;;;;;;;;;0.33;0.33;;;;;20.38;66.52;100223.56;5143975;27;45625;-83
2023/07/27 04:29:11;;;;;;;;;0.25;0.00;;;;;20.55;66.99;100255.13;5147208;27;46144;-81
2023/07/27 04:31:37;;;;;;;;;0.00;0.00;;;;;20.50;66.93;100259.31;5143743;27;48891;-81
2023/07/27 04:34:02;;;;;;;;;0.00;0.00;;;;;20.35;67.18;100225.75;5144116;27;46113;-82
2023/07/27 04:36:28;;;;;;;;;0.67;0.00;;;;;20.50;66.67;100252.03;5141523;27;45488;-83
2023/07/27 04:38:53;;;;;;;;;0.00;0.00;;;;;20.46;66.88;100245.28;5131916;27;45390;-81
2023/07/27 04:41:18;;;;;;;;;0.33;0.33;;;;;20.54;67.33;100256.13;5127721;27;57359;-81
2023/07/27 04:43:43;;;;;;;;;1.00;1.00;;;;;20.49;67.33;100247.66;5118528;27;55737;-84
2023/07/27 04:46:09;;;;;;;;;1.00;1.00;;;;;20.55;67.23;100263.22;5136481;27;45324;-86
2023/07/27 04:48:34;;;;;;;;;0.33;0.33;;;;;20.57;66.93;100258.53;5124226;27;56993;-84
2023/07/27 04:50:59;;;;;;;;;0.00;0.00;;;;;20.53;67.21;100262.53;5123176;27;45313;-82
2023/07/27 04:53:25;;;;;;;;;0.00;0.00;;;;;20.51;67.15;100253.75;5141598;27;45365;-84
2023/07/27 04:55:50;;;;;;;;;0.33;0.33;;;;;20.48;67.24;100251.38;5141468;27;45629;-85
2023/07/27 04:58:16;;;;;;;;;1.00;1.00;;;;;20.52;67.58;100244.63;5141937;27;45612;-83
2023/07/27 05:00:41;;;;;;;;;0.00;0.00;;;;;20.55;67.47;100249.72;5140892;27;45225;-82
2023/07/27 05:03:07;;;;;;;;;3.00;2.00;;;;;20.54;67.02;100234.50;5121849;27;45279;-81
2023/07/27 05:05:32;;;;;;;;;2.00;0.67;;;;;20.55;67.32;100254.25;5121954;27;45362;-83
2023/07/27 05:07:57;;;;;;;;;1.00;1.00;;;;;20.53;67.68;100257.13;5123720;27;45712;-84
2023/07/27 05:10:23;;;;;;;;;1.67;0.00;;;;;20.53;67.63;100249.03;5120794;27;45296;-80
2023/07/27 05:12:49;;;;;;;;;0.00;0.00;;;;;20.50;67.66;100252.03;5121413;27;45277;-82
2023/07/27 05:15:15;;;;;;;;;0.00;0.00;;;;;20.50;67.94;100252.03;5141665;27;45441;-81
2023/07/27 05:17:41;;;;;;;;;1.00;1.00;;;;;20.32;67.60;100221.50;5142001;27;45623;-80
2023/07/27 05:20:06;;;;;;;;;0.00;0.00;;;;;20.34;67.81;100224.91;5142085;27;45395;-82
2023/07/27 05:22:32;;;;;;;;;0.00;0.00;;;;;20.35;67.53;100226.59;5122538;27;45288;-82
2023/07/27 05:24:59;;;;;;;;;1.00;1.00;;;;;20.48;68.16;100258.63;5122576;27;45342;-83
2023/07/27 05:27:25;;;;;;;;;0.67;0.67;;;;;20.15;68.28;100204.31;5140674;27;46132;-81
2023/07/27 05:29:50;;;;;;;;;1.00;1.00;;;;;20.35;68.42;100232.00;5139479;27;45738;-81
2023/07/27 05:32:15;;;;;;;;;1.00;1.00;;;;;20.38;68.02;100233.53;5119867;27;45610;-82
2023/07/27 05:34:41;;;;;;;;;1.00;1.00;;;;;20.53;68.50;100254.44;5119665;27;45389;-84
2023/07/27 05:37:06;;;;;;;;;0.00;0.00;;;;;20.57;67.86;100258.53;5123500;27;45346;-82
2023/07/27 05:39:32;;;;;;;;;0.00;0.00;;;;;20.56;67.80;100239.75;5121850;27;45322;-81
2023/07/27 05:41:57;;;;;;;;;2.00;2.00;;;;;20.63;67.57;100250.78;5115309;27;45267;-82
2023/07/27 05:44:22;;;;;;;;;2.00;0.00;;;;;20.64;68.00;100252.47;5120130;27;45304;-85
2023/07/27 05:46:53;;;;;;;;;1.00;1.00;;;;;20.37;67.72;100213.78;5139227;27;46345;-80
2023/07/27 05:49:19;;;;;;;;;0.00;0.00;;;;;20.51;67.82;100225.88;5141386;27;45363;-79
2023/07/27 05:51:44;;;;;;;;;2.33;1.00;;;;;20.55;67.83;100244.31;5140327;27;52439;-83
2023/07/27 05:54:09;;;;;;;;;1.00;1.00;;;;;20.63;67.90;100248.09;5133537;27;45368;-81
2023/07/27 05:56:35;;;;;;;;;1.00;1.00;;;;;20.54;67.89;100236.34;5120297;27;45421;-82
2023/07/27 05:59:00;;;;;;;;;1.67;0.67;;;;;20.35;67.73;100221.19;5119258;27;45255;-80
2023/07/27 06:01:25;;;;;;;;;1.67;0.67;;;;;20.47;67.86;100227.22;5129663;27;45272;-80
2023/07/27 06:03:51;;;;;;;;;0.67;0.67;;;;;20.70;67.42;100241.00;5121658;27;45636;-82
2023/07/27 06:06:16;;;;;;;;;2.00;2.00;;;;;20.49;67.54;100207.13;5121870;27;47801;-82
2023/07/27 06:08:41;;;;;;;;;1.00;1.00;;;;;20.66;67.40;100234.25;5140007;27;45228;-78
2023/07/27 06:11:09;;;;;;;;;0.00;0.00;;;;;20.51;67.59;100204.28;5122330;27;45287;-81
2023/07/27 06:13:35;;;;;;;;;1.33;1.00;;;;;20.52;67.36;100198.69;5145782;27;45237;-82
2023/07/27 06:16:02;;;;;;;;;3.00;3.00;;;;;20.77;67.17;100237.53;5126634;27;47091;-81
2023/07/27 06:18:29;;;;;;;;;4.00;1.00;;;;;20.85;66.73;100236.75;5139998;27;44925;-83
2023/07/27 06:20:54;;;;;;;;;2.00;2.00;;;;;20.50;66.66;100165.59;5132855;27;45476;-83
2023/07/27 06:23:20;;;;;;;;;1.00;1.00;;;;;20.58;66.19;100171.06;5136861;27;45326;-81
2023/07/27 06:25:46;;;;;;;;;1.00;1.00;;;;;21.00;65.83;100229.72;5126634;27;46703;-83
2023/07/27 06:28:12;;;;;;;;;0.67;0.67;;;;;20.73;65.54;100182.13;5130738;27;45283;-82
2023/07/27 06:30:40;;;;;;;;;0.67;0.67;;;;;20.77;65.14;100164.56;5130393;27;45497;-79
2023/07/27 06:33:05;;;;;;;;;0.50;0.50;;;;;21.17;64.77;100219.81;5125456;27;45607;-82
2023/07/27 06:35:32;;;;;;;;;2.50;1.75;;;;;21.37;64.41;100233.94;5140286;27;45602;-81
2023/07/27 06:37:58;;;;;;;;;3.00;2.00;;;;;21.37;63.68;100223.97;5140744;27;45398;-81
2023/07/27 06:40:25;;;;;;;;;1.67;1.67;;;;;21.08;63.00;100172.94;5120399;27;45536;-82
2023/07/27 06:42:51;;;;;;;;;1.75;1.75;;;;;21.56;62.17;100222.00;5120075;27;45534;-82
2023/07/27 06:45:16;;;;;;;;;1.50;1.50;;;;;21.69;62.06;100252.97;5119483;27;45378;-81
2023/07/27 06:47:41;;;;;;;;;1.33;1.00;;;;;21.66;62.15;100253.31;5118754;27;45428;-80
2023/07/27 06:50:07;;;;;;;;;4.00;2.33;;;;;21.72;61.63;100251.78;5121021;27;45625;-82
2023/07/27 06:52:33;;;;;;;;;1.67;1.67;;;;;21.71;61.50;100241.97;5119773;27;45535;-79
2023/07/27 06:54:58;;;;;;;;;2.00;2.00;;;;;21.85;61.10;100251.28;5139528;27;46302;-80
2023/07/27 06:57:27;;;;;;;;;3.67;3.33;;;;;22.03;60.71;100243.91;5141968;27;45323;-81
2023/07/27 06:59:52;;;;;;;;;3.00;1.00;;;;;22.06;60.02;100225.47;5140972;27;45438;-82
2023/07/27 07:02:18;;;;;;;;;1.33;1.33;;;;;22.30;59.31;100238.16;5110188;27;45523;-84
2023/07/27 07:04:47;;;;;;;;;1.25;1.25;;;;;22.35;59.27;100248.47;5120373;27;46312;-81
2023/07/27 07:07:13;;;;;;;;;3.25;3.25;;;;;22.30;59.59;100240.88;5139372;27;45216;-80
2023/07/27 07:09:39;;;;;;;;;1.25;0.75;;;;;22.32;59.39;100263.22;5141557;27;45300;-86
2023/07/27 07:12:05;;;;;;;;;1.00;1.00;;;;;22.24;59.45;100228.00;5140676;27;45321;-79
2023/07/27 07:14:31;;;;;;;;;2.75;1.25;;;;;22.34;59.81;100250.34;5139397;27;45282;-83
2023/07/27 07:16:57;;;;;;;;;1.50;1.50;;;;;22.29;60.23;100239.19;5139938;27;45396;-83
2023/07/27 07:19:23;;;;;;;;;1.25;1.25;;;;;22.11;60.56;100211.41;5138760;27;45308;-80
2023/07/27 07:21:48;;;;;;;;;1.75;1.75;;;;;22.08;61.11;100230.72;5129350;27;45535;-80
2023/07/27 07:24:13;;;;;;;;;2.75;1.50;;;;;22.17;60.70;100243.25;5140042;27;45445;-86
2023/07/27 07:26:39;;;;;;;;;1.00;1.00;;;;;22.08;60.15;100206.34;5142976;27;45304;-87
2023/07/27 07:29:04;;;;;;;;;1.00;1.00;;;;;22.31;59.57;100242.56;5142855;27;45355;-88
2023/07/27 07:31:30;;;;;;;;;2.00;2.00;;;;;22.33;57.83;100240.53;5141720;27;45471;-85
2023/07/27 07:33:56;;;;;;;;;2.50;2.00;;;;;22.40;56.75;100253.38;5143222;27;45360;-82
2023/07/27 07:36:22;;;;;;;;;3.00;3.00;;;;;22.56;55.84;100237.13;5140360;27;45206;-81
2023/07/27 07:38:48;;;;;;;;;5.50;3.50;;;;;22.45;55.25;100188.69;5140589;27;45426;-84
2023/07/27 07:41:13;;;;;;;;;2.25;2.25;;;;;22.76;54.05;100254.69;5141505;27;45404;-79
2023/07/27 07:43:41;;;;;;;;;4.25;3.00;;;;;22.88;53.82;100252.50;5119524;27;45371;-81
2023/07/27 07:46:10;;;;;;;;;3.75;3.50;;;;;22.97;53.01;100256.03;5114227;27;45504;-81
2023/07/27 07:48:36;;;;;;;;;2.00;2.00;;;;;22.82;53.10;100231.47;5124843;27;45395;-78
2023/07/27 07:51:01;;;;;;;;;4.00;4.00;;;;;22.89;52.65;100249.59;5127294;27;45596;-82
2023/07/27 07:53:27;;;;;;;;;3.75;3.00;;;;;23.05;53.34;100261.41;5116287;27;46194;-79
2023/07/27 07:55:52;;;;;;;;;2.25;2.25;;;;;23.11;52.64;100252.59;5117673;27;45342;-80
2023/07/27 07:58:17;;;;;;;;;3.50;3.50;;;;;23.17;52.48;100235.59;5135464;27;45290;-80
2023/07/27 08:00:43;;;;;;;;;0.25;0.25;;;;;23.16;52.47;100232.03;5135077;27;45611;-80
2023/07/27 08:03:08;;;;;;;;;3.00;3.00;;;;;23.21;52.38;100253.25;5123442;27;45326;-80
2023/07/27 08:05:33;;;;;;;;;2.25;2.25;;;;;23.14;52.43;100257.66;5136820;27;45655;-81
2023/07/27 08:08:01;;;;;;;;;2.50;2.50;;;;;23.04;52.74;100255.16;5116494;27;45504;-80
2023/07/27 08:10:26;;;;;;;;;2.00;2.00;;;;;22.91;52.75;100231.28;5118024;27;45512;-81
2023/07/27 08:12:53;;;;;;;;;1.50;1.00;;;;;22.98;52.68;100257.72;5116745;27;46300;-83
2023/07/27 08:15:18;;;;;;;;;2.25;2.25;;;;;22.84;52.23;100200.50;5106340;27;45863;-83
2023/07/27 08:17:44;;;;;;;;;3.50;2.00;;;;;23.25;52.57;100244.56;5138751;27;45505;-86
2023/07/27 08:20:10;;;;;;;;;1.75;1.75;;;;;23.41;51.66;100249.06;5134984;27;45645;-79
2023/07/27 08:22:35;;;;;;;;;1.00;1.00;;;;;23.47;51.29;100242.94;5118849;27;46747;-82
2023/07/27 08:25:01;;;;;;;;;0.50;0.50;;;;;23.54;51.41;100238.47;5121947;27;45495;-80
2023/07/27 08:27:26;;;;;;;;;2.00;2.00;;;;;23.65;50.55;100241.84;5117837;27;45911;-81
2023/07/27 08:29:52;;;;;;;;;3.00;1.75;;;;;23.74;50.31;100217.19;5120221;27;45284;-80
2023/07/27 08:32:17;;;;;;;;;2.00;1.00;;;;;24.02;50.21;100225.63;5137357;27;45944;-80
2023/07/27 08:34:42;;;;;;;;;2.00;1.00;;;;;24.31;49.67;100245.81;5136807;27;45382;-80
2023/07/27 08:37:08;;;;;;;;;2.00;2.00;;;;;24.40;49.31;100234.69;5140376;27;45356;-81
2023/07/27 08:39:33;;;;;;;;;1.00;1.00;;;;;24.24;48.83;100213.06;5139555;27;45436;-83
2023/07/27 08:41:59;;;;;;;;;2.00;0.75;;;;;24.48;49.62;100236.50;5136013;27;45532;-78
2023/07/27 08:44:24;;;;;;;;;0.25;0.25;;;;;24.44;48.98;100240.59;5119763;27;45415;-81
2023/07/27 08:46:51;;;;;;;;;2.00;1.00;;;;;23.87;49.32;100173.13;5099998;27;45377;-77
2023/07/27 08:49:17;;;;;;;;;4.00;1.00;;;;;23.97;49.68;100227.22;5119642;27;45638;-78
2023/07/27 08:51:43;;;;;;;;;2.75;1.50;;;;;23.68;50.13;100204.31;5099126;27;45698;-76
2023/07/27 08:54:09;;;;;;;;;0.50;0.50;;;;;23.50;50.47;100198.31;5128340;27;45989;-81
2023/07/27 08:56:34;;;;;;;;;1.00;1.00;;;;;23.69;50.63;100226.88;5139870;27;45501;-78
2023/07/27 08:59:00;;;;;;;;;2.00;1.25;;;;;23.73;50.32;100236.38;5128743;27;45591;-76
2023/07/27 09:01:26;;;;;;;;;2.00;1.00;;;;;23.90;50.04;100237.94;5118883;27;46300;-76
2023/07/27 09:03:51;;;;;;;;;2.00;2.00;;;;;23.81;50.20;100226.28;5108086;27;45502;-79
2023/07/27 09:06:37;;;;;;;;;1.00;1.00;;;;;23.79;50.50;100220.19;5129283;27;45560;-77
2023/07/27 09:09:21;;;;;;;;;2.00;0.75;;;;;24.04;49.93;100249.91;5118770;27;45279;-77
2023/07/27 09:11:47;;;;;;;;;0.00;0.00;;;;;23.91;50.17;100219.78;5118830;27;46157;-78
2023/07/27 09:14:14;;;;;;;;;1.00;1.00;;;;;24.11;49.31;100242.72;5124770;27;45508;-77
2023/07/27 09:16:39;;;;;;;;;1.75;1.75;;;;;23.81;49.42;100184.72;5137239;27;45470;-78
2023/07/27 09:19:06;;;;;;;;;4.00;1.00;;;;;24.13;49.64;100256.97;5138058;27;45312;-80
2023/07/27 09:21:44;;;;;;;;;3.00;2.00;;;;;24.05;49.94;100240.72;5112203;27;46994;-79
2023/07/27 09:24:14;;;;;;;;;2.00;2.00;;;;;24.01;49.80;100248.41;5132801;27;45668;-81
2023/07/27 09:26:57;;;;;;;;;1.25;1.00;;;;;23.69;50.14;100206.00;5138760;27;45414;-79
2023/07/27 09:29:23;;;;;;;;;5.50;2.25;;;;;23.98;49.72;100256.91;5127430;27;45513;-79
2023/07/27 09:31:50;;;;;;;;;1.50;1.50;;;;;23.96;49.78;100237.25;5134561;27;45684;-78
2023/07/27 09:34:18;;;;;;;;;1.00;1.00;;;;;24.07;49.29;100250.38;5135395;27;45751;-79
2023/07/27 09:36:44;;;;;;;;;0.00;0.00;;;;;24.12;49.38;100261.56;5132950;27;45982;-78
2023/07/27 09:39:10;;;;;;;;;2.00;2.00;;;;;24.12;49.79;100256.13;5139201;27;45438;-79
2023/07/27 09:41:36;;;;;;;;;1.00;1.00;;;;;23.55;49.84;100185.88;5119488;27;46040;-79
2023/07/27 09:44:02;;;;;;;;;2.60;2.00;;;;;24.00;49.51;100238.56;5138552;27;45333;-78
2023/07/27 09:46:29;;;;;;;;;2.00;2.00;;;;;23.88;49.15;100212.84;5127844;27;45594;-79
2023/07/27 09:48:59;;;;;;;;;1.00;1.00;;;;;24.12;49.02;100231.69;5132588;27;45356;-80
2023/07/27 09:51:26;;;;;;;;;1.00;1.00;;;;;24.28;48.94;100244.28;5117855;27;46163;-80
2023/07/27 09:53:53;;;;;;;;;2.25;2.25;;;;;24.31;49.09;100243.94;5134055;27;45381;-81
2023/07/27 09:56:19;;;;;;;;;1.00;1.00;;;;;24.12;49.03;100201.78;5120180;27;45389;-81
2023/07/27 09:58:49;;;;;;;;;1.00;1.00;;;;;24.48;48.41;100228.34;5133939;27;45395;-79
2023/07/27 10:01:15;;;;;;;;;1.50;1.50;;;;;24.80;47.98;100229.03;5139638;27;45708;-82
2023/07/27 10:03:40;;;;;;;;;1.50;1.50;;;;;24.80;47.60;100229.88;5119608;27;45435;-80
2023/07/27 10:06:06;;;;;;;;;1.50;0.75;;;;;24.84;47.75;100233.88;5138059;27;45417;-80
2023/07/27 10:08:35;;;;;;;;;2.00;2.00;;;;;24.82;47.67;100254.16;5136770;27;45610;-81
2023/07/27 10:11:01;;;;;;;;;1.50;1.50;;;;;24.88;47.56;100247.97;5137267;27;45391;-79
2023/07/27 10:13:26;;;;;;;;;1.25;1.25;;;;;25.01;47.57;100244.63;5138057;27;45331;-79
2023/07/27 10:15:53;;;;;;;;;2.50;0.50;;;;;24.97;47.44;100236.78;5136746;27;45883;-81
2023/07/27 10:18:27;;;;;;;;;1.00;1.00;;;;;25.08;47.01;100238.25;5138238;27;45895;-80
2023/07/27 10:20:57;;;;;;;;;2.25;2.25;;;;;24.92;47.49;100195.72;5118025;27;47642;-78
2023/07/27 10:23:27;;;;;;;;;2.20;0.80;;;;;24.80;47.42;100191.78;5114263;27;45500;-78
2023/07/27 10:25:54;;;;;;;;;2.00;2.00;;;;;25.08;47.31;100232.78;5123379;27;45553;-81
2023/07/27 10:28:43;;;;;;;;;1.00;1.00;;;;;25.11;47.21;100229.69;5118526;27;45614;-82
2023/07/27 10:31:27;;;;;;;;;2.25;2.25;;;;;25.10;47.02;100214.41;5137175;27;45477;-81
2023/07/27 10:34:11;;;;;;;;;4.80;3.00;;;;;25.03;46.79;100194.44;5136789;27;45417;-81
2023/07/27 10:36:57;;;;;;;;;2.00;2.00;;;;;25.35;46.86;100238.59;5137373;27;45477;-80
2023/07/27 10:39:44;;;;;;;;;1.00;1.00;;;;;25.15;46.72;100227.47;5137312;27;45451;-81
2023/07/27 10:42:24;;;;;;;;;4.00;2.50;;;;;24.93;46.72;100202.00;5136925;27;45658;-80
2023/07/27 10:44:51;;;;;;;;;2.00;2.00;;;;;25.35;46.68;100244.88;5128781;27;45446;-81
2023/07/27 10:47:21;;;;;;;;;2.40;2.20;;;;;25.41;46.34;100246.00;5117081;27;45416;-78
2023/07/27 10:49:49;;;;;;;;;2.75;2.00;;;;;25.15;45.89;100190.19;5116180;27;45701;-82
2023/07/27 10:52:20;;;;;;;;;3.00;3.00;;;;;25.06;45.66;100164.13;5120894;27;45417;-81
2023/07/27 10:54:47;;;;;;;;;3.50;3.50;;;;;25.48;45.79;100233.31;5137341;27;45499;-82
2023/07/27 10:57:14;;;;;;;;;3.00;3.00;;;;;25.42;45.66;100212.31;5138336;27;45513;-83
2023/07/27 10:59:42;;;;;;;;;2.40;1.40;;;;;25.50;45.80;100233.94;5116817;27;45468;-80
2023/07/27 11:02:22;;;;;;;;;2.25;2.25;;;;;25.38;45.89;100238.19;5118079;27;46327;-80
2023/07/27 11:04:50;;;;;;;;;1.80;1.80;;;;;24.80;46.50;100164.59;5134839;27;45510;-79
2023/07/27 11:07:25;;;;;;;;;2.00;2.00;;;;;25.19;46.67;100237.75;5137334;27;45494;-82
2023/07/27 11:09:50;;;;;;;;;2.75;2.00;;;;;25.01;47.35;100237.31;5137737;27;45420;-81
2023/07/27 11:12:16;;;;;;;;;4.00;2.00;;;;;24.85;48.35;100235.56;5114590;27;46959;-79
2023/07/27 11:14:41;;;;;;;;;1.25;1.25;;;;;24.78;49.25;100234.66;5129598;27;45518;-81
2023/07/27 11:17:07;;;;;;;;;4.00;3.00;;;;;24.51;49.82;100213.53;5142711;27;45443;-80
2023/07/27 11:19:33;;;;;;;;;1.75;1.75;;;;;24.63;51.16;100231.91;5140211;27;45616;-79
2023/07/27 11:21:59;;;;;;;;;4.00;2.00;;;;;24.54;51.85;100219.44;5138221;27;45427;-80
2023/07/27 11:24:24;;;;;;;;;1.50;1.50;;;;;24.59;51.96;100195.22;5140192;27;45327;-82